sensor_id;sensor_type;location;lat;lon;timestamp;pressure;altitude;pressure_sealevel;temperature;humidity
68941;BME280;55982;51.476;7.552;2023-04-01T00:00:57;97602.78;;;9.19;100.00
68941;BME280;55982;51.476;7.552;2023-04-01T00:03:23;97605.41;;;9.19;100.00
68941;BME280;55982;51.476;7.552;2023-04-01T00:05:49;97601.69;;;9.23;100.00
68941;BME280;55982;51.476;7.552;2023-04-01T00:08:15;97604.38;;;9.22;100.00
68941;BME280;55982;51.476;7.552;2023-04-01T00:10:41;97602.91;;;9.18;100.00
68941;BME280;55982;51.476;7.552;2023-04-01T00:13:06;97600.38;;;9.16;100.00
68941;BME280;55982;51.476;7.552;2023-04-01T00:15:32;97608.41;;;9.13;100.00
68941;BME280;55982;51.476;7.552;2023-04-01T00:17:58;97607.44;;;9.14;100.00
68941;BME280;55982;51.476;7.552;2023-04-01T00:20:24;97609.03;;;9.17;100.00
68941;BME280;55982;51.476;7.552;2023-04-01T00:22:49;97616.00;;;9.16;100.00
68941;BME280;55982;51.476;7.552;2023-04-01T00:25:15;97605.59;;;9.16;100.00
68941;BME280;55982;51.476;7.552;2023-04-01T00:27:40;97609.97;;;9.16;100.00
68941;BME280;55982;51.476;7.552;2023-04-01T00:30:06;97606.91;;;9.09;100.00
68941;BME280;55982;51.476;7.552;2023-04-01T00:32:32;97612.88;;;9.11;100.00
68941;BME280;55982;51.476;7.552;2023-04-01T00:34:58;97604.31;;;9.09;100.00
68941;BME280;55982;51.476;7.552;2023-04-01T00:37:26;97611.91;;;9.12;100.00
68941;BME280;55982;51.476;7.552;2023-04-01T00:39:52;97612.50;;;9.17;100.00
68941;BME280;55982;51.476;7.552;2023-04-01T00:42:18;97606.25;;;9.20;100.00
68941;BME280;55982;51.476;7.552;2023-04-01T00:44:48;97609.13;;;9.15;100.00
68941;BME280;55982;51.476;7.552;2023-04-01T00:47:15;97604.09;;;9.12;100.00
68941;BME280;55982;51.476;7.552;2023-04-01T00:49:44;97613.72;;;9.12;100.00
68941;BME280;55982;51.476;7.552;2023-04-01T00:52:14;97594.81;;;9.08;100.00
68941;BME280;55982;51.476;7.552;2023-04-01T00:54:43;97605.19;;;9.22;100.00
68941;BME280;55982;51.476;7.552;2023-04-01T00:57:19;97601.69;;;9.23;100.00
68941;BME280;55982;51.476;7.552;2023-04-01T00:59:48;97599.06;;;9.23;100.00
68941;BME280;55982;51.476;7.552;2023-04-01T01:02:15;97599.97;;;9.22;100.00
68941;BME280;55982;51.476;7.552;2023-04-01T01:04:41;97604.66;;;9.17;100.00
68941;BME280;55982;51.476;7.552;2023-04-01T01:12:40;97600.09;;;9.07;100.00
68941;BME280;55982;51.476;7.552;2023-04-01T01:18:19;97597.59;;;9.05;100.00
68941;BME280;55982;51.476;7.552;2023-04-01T01:36:48;97577.31;;;8.96;100.00
68941;BME280;55982;51.476;7.552;2023-04-01T01:39:16;97585.03;;;8.98;100.00
68941;BME280;55982;51.476;7.552;2023-04-01T01:41:43;97585.69;;;9.01;100.00
68941;BME280;55982;51.476;7.552;2023-04-01T01:44:14;97582.53;;;8.96;100.00
68941;BME280;55982;51.476;7.552;2023-04-01T01:46:41;97582.34;;;8.99;100.00
68941;BME280;55982;51.476;7.552;2023-04-01T01:49:09;97580.66;;;8.98;100.00
68941;BME280;55982;51.476;7.552;2023-04-01T01:51:35;97577.13;;;8.99;100.00
68941;BME280;55982;51.476;7.552;2023-04-01T01:54:01;97570.03;;;9.01;100.00
68941;BME280;55982;51.476;7.552;2023-04-01T01:56:27;97575.47;;;8.98;100.00
68941;BME280;55982;51.476;7.552;2023-04-01T01:59:03;97585.88;;;8.98;100.00
68941;BME280;55982;51.476;7.552;2023-04-01T02:01:36;97584.19;;;8.97;100.00
68941;BME280;55982;51.476;7.552;2023-04-01T02:04:04;97574.88;;;8.93;100.00
68941;BME280;55982;51.476;7.552;2023-04-01T02:06:32;97580.84;;;8.95;100.00
68941;BME280;55982;51.476;7.552;2023-04-01T02:09:04;97572.09;;;8.96;100.00
68941;BME280;55982;51.476;7.552;2023-04-01T02:11:36;97576.00;;;9.03;100.00
68941;BME280;55982;51.476;7.552;2023-04-01T02:16:40;97589.34;;;8.99;100.00
68941;BME280;55982;51.476;7.552;2023-04-01T02:19:10;97577.13;;;8.99;100.00
68941;BME280;55982;51.476;7.552;2023-04-01T02:21:38;97585.03;;;8.98;100.00
68941;BME280;55982;51.476;7.552;2023-04-01T02:24:08;97585.03;;;8.98;100.00
68941;BME280;55982;51.476;7.552;2023-04-01T02:26:35;97584.19;;;8.97;100.00
68941;BME280;55982;51.476;7.552;2023-04-01T02:29:02;97573.97;;;8.94;100.00
68941;BME280;55982;51.476;7.552;2023-04-01T02:31:29;97586.06;;;8.95;100.00
68941;BME280;55982;51.476;7.552;2023-04-01T02:33:56;97578.97;;;8.97;100.00
68941;BME280;55982;51.476;7.552;2023-04-01T02:36:21;97576.47;;;8.96;100.00
68941;BME280;55982;51.476;7.552;2023-04-01T02:38:47;97570.41;;;8.95;100.00
68941;BME280;55982;51.476;7.552;2023-04-01T02:41:13;97577.50;;;8.93;100.00
68941;BME280;55982;51.476;7.552;2023-04-01T02:43:39;97590.53;;;8.93;100.00
68941;BME280;55982;51.476;7.552;2023-04-01T02:46:06;97574.81;;;8.95;100.00
68941;BME280;55982;51.476;7.552;2023-04-01T02:48:31;97573.97;;;8.94;100.00
68941;BME280;55982;51.476;7.552;2023-04-01T02:50:57;97568.75;;;8.94;100.00
68941;BME280;55982;51.476;7.552;2023-04-01T02:53:22;97565.78;;;8.86;100.00
68941;BME280;55982;51.476;7.552;2023-04-01T02:55:48;97565.78;;;8.86;100.00
68941;BME280;55982;51.476;7.552;2023-04-01T02:58:15;97559.81;;;8.84;100.00
68941;BME280;55982;51.476;7.552;2023-04-01T03:00:41;97566.72;;;8.85;100.00
68941;BME280;55982;51.476;7.552;2023-04-01T03:03:06;97565.63;;;8.89;100.00
68941;BME280;55982;51.476;7.552;2023-04-01T03:05:32;97562.06;;;8.90;100.00
68941;BME280;55982;51.476;7.552;2023-04-01T03:07:57;97563.19;;;8.86;100.00
68941;BME280;55982;51.476;7.552;2023-04-01T03:10:22;97564.88;;;8.87;100.00
68941;BME280;55982;51.476;7.552;2023-04-01T03:12:48;97560.78;;;8.83;100.00
68941;BME280;55982;51.476;7.552;2023-04-01T03:15:13;97568.59;;;8.83;100.00
68941;BME280;55982;51.476;7.552;2023-04-01T03:17:42;97572.97;;;8.83;100.00
68941;BME280;55982;51.476;7.552;2023-04-01T03:20:09;97567.66;;;8.84;100.00
68941;BME280;55982;51.476;7.552;2023-04-01T03:22:35;97570.09;;;8.87;100.00
68941;BME280;55982;51.476;7.552;2023-04-01T03:25:02;97570.16;;;8.86;100.00
68941;BME280;55982;51.476;7.552;2023-04-01T03:27:28;97580.94;;;8.80;100.00
68941;BME280;55982;51.476;7.552;2023-04-01T03:29:53;97584.59;;;8.77;100.00
68941;BME280;55982;51.476;7.552;2023-04-01T03:32:18;97580.31;;;8.76;100.00
68941;BME280;55982;51.476;7.552;2023-04-01T03:34:44;97588.22;;;8.75;100.00
68941;BME280;55982;51.476;7.552;2023-04-01T03:37:09;97576.97;;;8.74;100.00
68941;BME280;55982;51.476;7.552;2023-04-01T03:39:35;97579.56;;;8.74;100.00
68941;BME280;55982;51.476;7.552;2023-04-01T03:42:00;97575.09;;;8.76;100.00
68941;BME280;55982;51.476;7.552;2023-04-01T03:44:29;97583.13;;;8.73;100.00
68941;BME280;55982;51.476;7.552;2023-04-01T03:46:55;97574.47;;;8.73;100.00
68941;BME280;55982;51.476;7.552;2023-04-01T03:49:20;97583.13;;;8.73;100.00
68941;BME280;55982;51.476;7.552;2023-04-01T03:51:45;97586.63;;;8.72;100.00
68941;BME280;55982;51.476;7.552;2023-04-01T03:54:11;97579.66;;;8.73;100.00
68941;BME280;55982;51.476;7.552;2023-04-01T03:56:37;97580.69;;;8.70;100.00
68941;BME280;55982;51.476;7.552;2023-04-01T03:59:05;97587.78;;;8.68;100.00
68941;BME280;55982;51.476;7.552;2023-04-01T04:01:31;97586.09;;;8.67;100.00
68941;BME280;55982;51.476;7.552;2023-04-01T04:03:56;97594.88;;;8.66;100.00
68941;BME280;55982;51.476;7.552;2023-04-01T04:06:23;97591.50;;;8.64;100.00
68941;BME280;55982;51.476;7.552;2023-04-01T04:08:49;97593.16;;;8.65;100.00
68941;BME280;55982;51.476;7.552;2023-04-01T04:11:14;97601.94;;;8.64;100.00
68941;BME280;55982;51.476;7.552;2023-04-01T04:13:40;97606.31;;;8.64;100.00
68941;BME280;55982;51.476;7.552;2023-04-01T04:16:05;97605.44;;;8.63;100.00
68941;BME280;55982;51.476;7.552;2023-04-01T04:18:31;97609.81;;;8.63;100.00
68941;BME280;55982;51.476;7.552;2023-04-01T04:20:56;97624.44;;;8.65;100.00
68941;BME280;55982;51.476;7.552;2023-04-01T04:23:22;97613.38;;;8.62;100.00
68941;BME280;55982;51.476;7.552;2023-04-01T04:25:59;97622.78;;;8.64;100.00
68941;BME280;55982;51.476;7.552;2023-04-01T04:28:26;97615.88;;;8.63;100.00
68941;BME280;55982;51.476;7.552;2023-04-01T04:30:52;97610.66;;;8.63;100.00
68941;BME280;55982;51.476;7.552;2023-04-01T04:33:17;97619.06;;;8.68;100.00
68941;BME280;55982;51.476;7.552;2023-04-01T04:35:42;97622.38;;;8.70;100.00
68941;BME280;55982;51.476;7.552;2023-04-01T04:38:08;97624.91;;;8.72;100.00
68941;BME280;55982;51.476;7.552;2023-04-01T04:40:36;97623.97;;;8.73;100.00
68941;BME280;55982;51.476;7.552;2023-04-01T04:43:02;97623.06;;;8.74;100.00
68941;BME280;55982;51.476;7.552;2023-04-01T04:45:27;97622.22;;;8.73;100.00
68941;BME280;55982;51.476;7.552;2023-04-01T04:47:52;97630.94;;;8.72;100.00
68941;BME280;55982;51.476;7.552;2023-04-01T04:50:18;97624.81;;;8.73;100.00
68941;BME280;55982;51.476;7.552;2023-04-01T04:52:43;97628.19;;;8.75;100.00
68941;BME280;55982;51.476;7.552;2023-04-01T04:55:08;97637.59;;;8.78;100.00
68941;BME280;55982;51.476;7.552;2023-04-01T04:57:34;97633.19;;;8.78;100.00
68941;BME280;55982;51.476;7.552;2023-04-01T04:59:59;97633.94;;;8.80;100.00
68941;BME280;55982;51.476;7.552;2023-04-01T05:02:25;97633.94;;;8.80;100.00
68941;BME280;55982;51.476;7.552;2023-04-01T05:04:50;97636.44;;;8.82;100.00
68941;BME280;55982;51.476;7.552;2023-04-01T05:07:15;97638.03;;;8.84;100.00
68941;BME280;55982;51.476;7.552;2023-04-01T05:09:41;97642.34;;;8.85;100.00
68941;BME280;55982;51.476;7.552;2023-04-01T05:12:06;97638.97;;;8.83;100.00
68941;BME280;55982;51.476;7.552;2023-04-01T05:14:31;97643.25;;;8.84;100.00
68941;BME280;55982;51.476;7.552;2023-04-01T05:16:57;97640.63;;;8.84;100.00
68941;BME280;55982;51.476;7.552;2023-04-01T05:19:22;97639.72;;;8.85;100.00
68941;BME280;55982;51.476;7.552;2023-04-01T05:21:48;97645.69;;;8.87;100.00
68941;BME280;55982;51.476;7.552;2023-04-01T05:24:13;97640.47;;;8.87;100.00
68941;BME280;55982;51.476;7.552;2023-04-01T05:26:38;97644.84;;;8.87;100.00
68941;BME280;55982;51.476;7.552;2023-04-01T05:29:05;97635.25;;;8.87;100.00
68941;BME280;55982;51.476;7.552;2023-04-01T05:31:30;97645.69;;;8.87;100.00
68941;BME280;55982;51.476;7.552;2023-04-01T05:33:55;97651.44;;;8.92;100.00
68941;BME280;55982;51.476;7.552;2023-04-01T05:36:21;97657.56;;;8.91;100.00
68941;BME280;55982;51.476;7.552;2023-04-01T05:38:47;97646.31;;;8.91;100.00
68941;BME280;55982;51.476;7.552;2023-04-01T05:41:13;97659.25;;;8.92;100.00
68941;BME280;55982;51.476;7.552;2023-04-01T05:43:39;97661.78;;;8.94;100.00
68941;BME280;55982;51.476;7.552;2023-04-01T05:46:05;97668.69;;;8.95;100.00
68941;BME280;55982;51.476;7.552;2023-04-01T05:48:30;97662.41;;;8.97;100.00
68941;BME280;55982;51.476;7.552;2023-04-01T05:50:55;97667.47;;;9.00;100.00
68941;BME280;55982;51.476;7.552;2023-04-01T05:53:21;97667.56;;;8.99;100.00
68941;BME280;55982;51.476;7.552;2023-04-01T05:55:47;97662.41;;;8.97;100.00
68941;BME280;55982;51.476;7.552;2023-04-01T05:58:13;97666.50;;;9.01;100.00
68941;BME280;55982;51.476;7.552;2023-04-01T06:00:38;97663.75;;;9.04;100.00
68941;BME280;55982;51.476;7.552;2023-04-01T06:03:03;97667.47;;;9.00;100.00
68941;BME280;55982;51.476;7.552;2023-04-01T06:05:30;97666.41;;;9.03;100.00
68941;BME280;55982;51.476;7.552;2023-04-01T06:08:10;97665.03;;;9.11;100.00
68941;BME280;55982;51.476;7.552;2023-04-01T06:16:24;97677.13;;;9.27;100.00
68941;BME280;55982;51.476;7.552;2023-04-01T06:30:40;97684.38;;;9.36;100.00
68941;BME280;55982;51.476;7.552;2023-04-01T06:36:08;97695.91;;;9.46;100.00
68941;BME280;55982;51.476;7.552;2023-04-01T06:44:18;97695.91;;;9.46;100.00
68941;BME280;55982;51.476;7.552;2023-04-01T06:46:58;97693.31;;;9.46;100.00
68941;BME280;55982;51.476;7.552;2023-04-01T06:52:10;97701.28;;;9.57;100.00
68941;BME280;55982;51.476;7.552;2023-04-01T06:54:45;97697.56;;;9.61;100.00
68941;BME280;55982;51.476;7.552;2023-04-01T06:57:35;97700.63;;;9.67;100.00
68941;BME280;55982;51.476;7.552;2023-04-01T07:00:13;97702.97;;;9.72;100.00
68941;BME280;55982;51.476;7.552;2023-04-01T07:02:45;97699.78;;;9.67;100.00
68941;BME280;55982;51.476;7.552;2023-04-01T07:05:19;97708.34;;;9.69;100.00
68941;BME280;55982;51.476;7.552;2023-04-01T07:07:50;97702.75;;;9.75;100.00
68941;BME280;55982;51.476;7.552;2023-04-01T07:10:43;97696.13;;;9.83;100.00
68941;BME280;55982;51.476;7.552;2023-04-01T07:13:29;97705.72;;;9.83;100.00
68941;BME280;55982;51.476;7.552;2023-04-01T07:16:05;97700.50;;;9.83;100.00
68941;BME280;55982;51.476;7.552;2023-04-01T07:18:44;97709.66;;;9.76;100.00
68941;BME280;55982;51.476;7.552;2023-04-01T07:21:27;97710.03;;;9.70;100.00
68941;BME280;55982;51.476;7.552;2023-04-01T07:23:57;97714.88;;;9.76;100.00
68941;BME280;55982;51.476;7.552;2023-04-01T07:26:25;97718.22;;;9.78;100.00
68941;BME280;55982;51.476;7.552;2023-04-01T07:28:53;97723.25;;;9.81;100.00
68941;BME280;55982;51.476;7.552;2023-04-01T07:31:32;97719.38;;;9.74;100.00
68941;BME280;55982;51.476;7.552;2023-04-01T07:34:24;97720.09;;;9.76;100.00
68941;BME280;55982;51.476;7.552;2023-04-01T07:37:00;97725.50;;;9.73;100.00
68941;BME280;55982;51.476;7.552;2023-04-01T07:39:37;97726.78;;;9.80;100.00
68941;BME280;55982;51.476;7.552;2023-04-01T07:45:30;97736.03;;;9.85;100.00
68941;BME280;55982;51.476;7.552;2023-04-01T07:48:18;97729.13;;;9.84;100.00
68941;BME280;55982;51.476;7.552;2023-04-01T08:01:26;97739.81;;;9.94;100.00
68941;BME280;55982;51.476;7.552;2023-04-01T08:06:31;97740.56;;;10.10;100.00
68941;BME280;55982;51.476;7.552;2023-04-01T08:09:26;97743.06;;;10.11;100.00
68941;BME280;55982;51.476;7.552;2023-04-01T08:14:48;97754.44;;;10.37;100.00
68941;BME280;55982;51.476;7.552;2023-04-01T08:20:34;97765.34;;;10.17;100.00
68941;BME280;55982;51.476;7.552;2023-04-01T08:23:16;97760.22;;;10.16;100.00
68941;BME280;55982;51.476;7.552;2023-04-01T08:30:55;97771.06;;;10.09;100.00
68941;BME280;55982;51.476;7.552;2023-04-01T08:33:24;97767.94;;;10.17;100.00
68941;BME280;55982;51.476;7.552;2023-04-01T08:43:48;97773.06;;;10.45;100.00
68941;BME280;55982;51.476;7.552;2023-04-01T08:46:37;97771.88;;;10.63;100.00
68941;BME280;55982;51.476;7.552;2023-04-01T08:54:46;97777.94;;;10.64;100.00
68941;BME280;55982;51.476;7.552;2023-04-01T08:59:59;97786.97;;;10.19;100.00
68941;BME280;55982;51.476;7.552;2023-04-01T09:08:01;97800.03;;;10.05;100.00
68941;BME280;55982;51.476;7.552;2023-04-01T09:10:46;97808.38;;;10.11;100.00
68941;BME280;55982;51.476;7.552;2023-04-01T09:27:37;97806.94;;;10.06;100.00
68941;BME280;55982;51.476;7.552;2023-04-01T09:30:31;97825.13;;;10.07;100.00
68941;BME280;55982;51.476;7.552;2023-04-01T09:33:12;97821.31;;;9.99;100.00
68941;BME280;55982;51.476;7.552;2023-04-01T09:38:29;97826.56;;;10.13;100.00
68941;BME280;55982;51.476;7.552;2023-04-01T09:40:58;97833.47;;;10.14;100.00
68941;BME280;55982;51.476;7.552;2023-04-01T09:43:54;97830.44;;;10.20;100.00
68941;BME280;55982;51.476;7.552;2023-04-01T09:54:31;97847.44;;;10.27;100.00
68941;BME280;55982;51.476;7.552;2023-04-01T10:05:28;97863.38;;;10.08;100.00
68941;BME280;55982;51.476;7.552;2023-04-01T10:11:09;97865.34;;;10.19;100.00
68941;BME280;55982;51.476;7.552;2023-04-01T10:25:18;97874.22;;;10.17;100.00
68941;BME280;55982;51.476;7.552;2023-04-01T10:52:27;97873.53;;;10.68;100.00
68941;BME280;55982;51.476;7.552;2023-04-01T10:58:08;97886.88;;;10.77;100.00
68941;BME280;55982;51.476;7.552;2023-04-01T11:01:14;97884.81;;;10.68;100.00
68941;BME280;55982;51.476;7.552;2023-04-01T11:29:48;97904.06;;;10.67;100.00
68941;BME280;55982;51.476;7.552;2023-04-01T11:43:04;97931.63;;;10.59;100.00
68941;BME280;55982;51.476;7.552;2023-04-01T11:45:45;97928.53;;;10.66;100.00
68941;BME280;55982;51.476;7.552;2023-04-01T11:51:10;97926.88;;;10.65;100.00
68941;BME280;55982;51.476;7.552;2023-04-01T11:56:50;97939.56;;;10.71;100.00
68941;BME280;55982;51.476;7.552;2023-04-01T12:02:29;97947.25;;;10.46;100.00
68941;BME280;55982;51.476;7.552;2023-04-01T12:05:37;97951.84;;;10.43;100.00
68941;BME280;55982;51.476;7.552;2023-04-01T12:14:50;97971.53;;;10.48;100.00
68941;BME280;55982;51.476;7.552;2023-04-01T12:17:08;97969.66;;;10.50;100.00
68941;BME280;55982;51.476;7.552;2023-04-01T12:20:11;97967.41;;;10.58;100.00
68941;BME280;55982;51.476;7.552;2023-04-01T12:25:53;97972.09;;;10.80;100.00
68941;BME280;55982;51.476;7.552;2023-04-01T12:36:56;97973.94;;;11.19;100.00
68941;BME280;55982;51.476;7.552;2023-04-01T12:39:42;97983.41;;;11.21;100.00
68941;BME280;55982;51.476;7.552;2023-04-01T12:44:57;97993.00;;;11.21;100.00
68941;BME280;55982;51.476;7.552;2023-04-01T12:58:11;98003.38;;;11.22;100.00
68941;BME280;55982;51.476;7.552;2023-04-01T13:09:32;98013.81;;;11.10;100.00
68941;BME280;55982;51.476;7.552;2023-04-01T13:17:53;98019.06;;;11.49;100.00
68941;BME280;55982;51.476;7.552;2023-04-01T13:20:45;98029.84;;;11.71;100.00
68941;BME280;55982;51.476;7.552;2023-04-01T13:26:28;98022.63;;;11.48;100.00
68941;BME280;55982;51.476;7.552;2023-04-01T13:42:51;98048.06;;;10.78;100.00
68941;BME280;55982;51.476;7.552;2023-04-01T13:45:21;98049.94;;;10.76;100.00
68941;BME280;55982;51.476;7.552;2023-04-01T14:11:34;98091.28;;;10.42;100.00
68941;BME280;55982;51.476;7.552;2023-04-01T14:19:50;98101.28;;;10.35;100.00
68941;BME280;55982;51.476;7.552;2023-04-01T14:27:24;98110.41;;;10.28;100.00
68941;BME280;55982;51.476;7.552;2023-04-01T14:30:00;98117.88;;;10.34;100.00
68941;BME280;55982;51.476;7.552;2023-04-01T14:35:35;98126.16;;;10.56;100.00
68941;BME280;55982;51.476;7.552;2023-04-01T14:40:44;98122.22;;;10.63;100.00
68941;BME280;55982;51.476;7.552;2023-04-01T14:46:02;98119.78;;;10.74;100.00
68941;BME280;55982;51.476;7.552;2023-04-01T14:48:37;98117.34;;;10.85;100.00
68941;BME280;55982;51.476;7.552;2023-04-01T14:56:44;98127.09;;;10.69;100.00
68941;BME280;55982;51.476;7.552;2023-04-01T14:59:27;98133.22;;;10.68;100.00
68941;BME280;55982;51.476;7.552;2023-04-01T15:02:03;98137.34;;;10.72;100.00
68941;BME280;55982;51.476;7.552;2023-04-01T15:07:17;98141.66;;;10.59;100.00
68941;BME280;55982;51.476;7.552;2023-04-01T15:10:06;98135.09;;;10.52;100.00
68941;BME280;55982;51.476;7.552;2023-04-01T15:12:57;98152.00;;;10.47;100.00
68941;BME280;55982;51.476;7.552;2023-04-01T15:16:05;98149.66;;;10.42;100.00
68941;BME280;55982;51.476;7.552;2023-04-01T15:24:24;98168.09;;;10.25;100.00
68941;BME280;55982;51.476;7.552;2023-04-01T15:35:39;98180.53;;;10.36;100.00
68941;BME280;55982;51.476;7.552;2023-04-01T15:43:45;98188.91;;;10.56;100.00
68941;BME280;55982;51.476;7.552;2023-04-01T15:46:28;98192.78;;;10.49;100.00
68941;BME280;55982;51.476;7.552;2023-04-01T15:51:52;98187.16;;;10.41;100.00
68941;BME280;55982;51.476;7.552;2023-04-01T16:02:31;98218.66;;;10.24;100.00
68941;BME280;55982;51.476;7.552;2023-04-01T16:21:14;98228.94;;;10.27;100.00
68941;BME280;55982;51.476;7.552;2023-04-01T16:23:51;98241.06;;;10.28;100.00
68941;BME280;55982;51.476;7.552;2023-04-01T16:26:24;98237.56;;;10.29;100.00
68941;BME280;55982;51.476;7.552;2023-04-01T16:29:03;98244.09;;;10.36;100.00
68941;BME280;55982;51.476;7.552;2023-04-01T16:37:10;98246.31;;;10.28;100.00
68941;BME280;55982;51.476;7.552;2023-04-01T16:39:50;98249.66;;;10.30;100.00
68941;BME280;55982;51.476;7.552;2023-04-01T16:42:51;98254.91;;;10.30;100.00
68941;BME280;55982;51.476;7.552;2023-04-01T16:45:24;98258.03;;;10.21;100.00
68941;BME280;55982;51.476;7.552;2023-04-01T16:48:06;98255.44;;;10.21;100.00
68941;BME280;55982;51.476;7.552;2023-04-01T16:55:49;98276.00;;;10.27;100.00
68941;BME280;55982;51.476;7.552;2023-04-01T16:58:36;98277.09;;;10.23;100.00
68941;BME280;55982;51.476;7.552;2023-04-01T17:01:41;98276.53;;;10.18;100.00
68941;BME280;55982;51.476;7.552;2023-04-01T17:07:01;98283.00;;;10.11;100.00
68941;BME280;55982;51.476;7.552;2023-04-01T17:15:15;98294.50;;;10.07;100.00
68941;BME280;55982;51.476;7.552;2023-04-01T17:20:43;98299.72;;;10.07;100.00
68941;BME280;55982;51.476;7.552;2023-04-01T17:31:24;98317.94;;;9.93;100.00
68941;BME280;55982;51.476;7.552;2023-04-01T17:42:11;98337.31;;;9.89;100.00
68941;BME280;55982;51.476;7.552;2023-04-01T17:45:18;98344.41;;;9.87;100.00
68941;BME280;55982;51.476;7.552;2023-04-01T17:50:43;98351.28;;;9.88;100.00
68941;BME280;55982;51.476;7.552;2023-04-01T17:53:33;98351.63;;;9.82;100.00
68941;BME280;55982;51.476;7.552;2023-04-01T17:58:46;98366.38;;;9.83;100.00
68941;BME280;55982;51.476;7.552;2023-04-01T18:03:57;98374.72;;;9.74;100.00
68941;BME280;55982;51.476;7.552;2023-04-01T18:15:02;98388.34;;;9.79;100.00
68941;BME280;55982;51.476;7.552;2023-04-01T18:20:28;98399.56;;;9.81;100.00
68941;BME280;55982;51.476;7.552;2023-04-01T18:23:00;98407.22;;;9.84;100.00
68941;BME280;55982;51.476;7.552;2023-04-01T18:25:40;98410.59;;;9.86;100.00
68941;BME280;55982;51.476;7.552;2023-04-01T18:28:31;98418.59;;;9.83;100.00
68941;BME280;55982;51.476;7.552;2023-04-01T18:39:10;98436.72;;;9.86;100.00
68941;BME280;55982;51.476;7.552;2023-04-01T18:41:49;98433.50;;;9.81;100.00
68941;BME280;55982;51.476;7.552;2023-04-01T18:44:25;98430.81;;;9.82;100.00
68941;BME280;55982;51.476;7.552;2023-04-01T18:47:07;98439.59;;;9.81;100.00
68941;BME280;55982;51.476;7.552;2023-04-01T18:49:41;98442.25;;;9.80;100.00
68941;BME280;55982;51.476;7.552;2023-04-01T18:52:31;98447.47;;;9.80;100.00
68941;BME280;55982;51.476;7.552;2023-04-01T18:57:39;98452.38;;;9.86;100.00
68941;BME280;55982;51.476;7.552;2023-04-01T19:00:14;98468.06;;;9.86;100.00
68941;BME280;55982;51.476;7.552;2023-04-01T19:03:18;98477.91;;;9.81;100.00
68941;BME280;55982;51.476;7.552;2023-04-01T19:05:47;98473.75;;;9.77;100.00
68941;BME280;55982;51.476;7.552;2023-04-01T19:08:32;98477.06;;;9.80;100.00
68941;BME280;55982;51.476;7.552;2023-04-01T19:13:50;98485.88;;;9.78;100.00
68941;BME280;55982;51.476;7.552;2023-04-01T19:19:34;98494.66;;;9.77;100.00
68941;BME280;55982;51.476;7.552;2023-04-01T19:27:45;98511.69;;;9.84;100.00
68941;BME280;55982;51.476;7.552;2023-04-01T19:33:16;98520.16;;;9.89;100.00
68941;BME280;55982;51.476;7.552;2023-04-01T19:35:55;98523.22;;;9.80;100.00
68941;BME280;55982;51.476;7.552;2023-04-01T19:38:31;98528.97;;;9.86;100.00
68941;BME280;55982;51.476;7.552;2023-04-01T19:41:41;98533.81;;;9.94;100.00
68941;BME280;55982;51.476;7.552;2023-04-01T19:44:22;98536.50;;;9.92;100.00
68941;BME280;55982;51.476;7.552;2023-04-01T19:47:20;98532.97;;;9.93;100.00
68941;BME280;55982;51.476;7.552;2023-04-01T19:50:08;98540.28;;;9.87;100.00
68941;BME280;55982;51.476;7.552;2023-04-01T19:52:37;98545.94;;;9.78;100.00
68941;BME280;55982;51.476;7.552;2023-04-01T19:57:47;98546.59;;;9.83;100.00
68941;BME280;55982;51.476;7.552;2023-04-01T20:00:28;98556.72;;;9.89;100.00
68941;BME280;55982;51.476;7.552;2023-04-01T20:14:23;98576.94;;;9.85;100.00
68941;BME280;55982;51.476;7.552;2023-04-01T20:16:46;98584.00;;;9.83;100.00
68941;BME280;55982;51.476;7.552;2023-04-01T20:19:13;98591.88;;;9.82;100.00
68941;BME280;55982;51.476;7.552;2023-04-01T20:21:44;98604.16;;;9.80;100.00
68941;BME280;55982;51.476;7.552;2023-04-01T20:26:43;98605.88;;;9.81;100.00
68941;BME280;55982;51.476;7.552;2023-04-01T20:29:40;98607.56;;;9.82;100.00
68941;BME280;55982;51.476;7.552;2023-04-01T20:40:47;98634.13;;;9.73;100.00
68941;BME280;55982;51.476;7.552;2023-04-01T20:46:07;98640.91;;;9.77;100.00
68941;BME280;55982;51.476;7.552;2023-04-01T20:51:32;98654.03;;;9.75;100.00
68941;BME280;55982;51.476;7.552;2023-04-01T20:59:49;98681.69;;;9.61;100.00
68941;BME280;55982;51.476;7.552;2023-04-01T21:13:10;98695.25;;;8.94;100.00
68941;BME280;55982;51.476;7.552;2023-04-01T21:15:59;98712.34;;;8.81;100.00
68941;BME280;55982;51.476;7.552;2023-04-01T21:32:57;98753.28;;;8.39;100.00
68941;BME280;55982;51.476;7.552;2023-04-01T21:35:00;98763.97;;;8.33;100.00
68941;BME280;55982;51.476;7.552;2023-04-01T21:37:42;98766.03;;;8.25;100.00
68941;BME280;55982;51.476;7.552;2023-04-01T21:48:25;98791.78;;;8.09;100.00
68941;BME280;55982;51.476;7.552;2023-04-01T21:53:42;98808.38;;;8.07;100.00
68941;BME280;55982;51.476;7.552;2023-04-01T22:06:56;98827.41;;;7.87;100.00
68941;BME280;55982;51.476;7.552;2023-04-01T22:09:29;98851.34;;;7.74;100.00
68941;BME280;55982;51.476;7.552;2023-04-01T22:20:45;98869.94;;;7.63;100.00
68941;BME280;55982;51.476;7.552;2023-04-01T22:28:21;98880.69;;;7.54;100.00
68941;BME280;55982;51.476;7.552;2023-04-01T22:30:56;98882.56;;;7.51;100.00
68941;BME280;55982;51.476;7.552;2023-04-01T22:44:01;98914.91;;;7.19;100.00
68941;BME280;55982;51.476;7.552;2023-04-01T22:54:24;98927.88;;;6.94;100.00
68941;BME280;55982;51.476;7.552;2023-04-01T22:57:04;98928.47;;;7.02;100.00
68941;BME280;55982;51.476;7.552;2023-04-01T22:59:57;98943.59;;;6.91;100.00
68941;BME280;55982;51.476;7.552;2023-04-01T23:02:28;98940.25;;;6.86;100.00
68941;BME280;55982;51.476;7.552;2023-04-01T23:04:57;98943.06;;;6.80;100.00
68941;BME280;55982;51.476;7.552;2023-04-01T23:07:48;98955.34;;;6.75;100.00
68941;BME280;55982;51.476;7.552;2023-04-01T23:13:04;98966.69;;;6.73;100.00
68941;BME280;55982;51.476;7.552;2023-04-01T23:15:32;98963.28;;;6.72;100.00